Time;durP1;ratioP1;P1;durP2;ratioP2;P2;SDS_P1;SDS_P2;PMS_P1;PMS_P2;Temp;Humidity;BMP_temperature;BMP_pressure;BME280_temperature;BME280_humidity;BME280_pressure;Samples;Min_cycle;Max_cycle;Signal;HPM_P1;HPM_P2
2023/08/17 00:01:02;;;;;;;7.38;2.60;;;;;;;18.27;100.00;101888.34;5090329;28;20357;-68
2023/08/17 00:03:28;;;;;;;5.38;2.92;;;;;;;18.26;100.00;101888.53;5090398;28;20120;-68
2023/08/17 00:05:53;;;;;;;3.33;2.70;;;;;;;18.22;100.00;101890.06;5090523;28;20031;-68
2023/08/17 00:08:19;;;;;;;6.18;2.85;;;;;;;18.23;100.00;101894.41;5090327;28;20040;-68
2023/08/17 00:10:44;;;;;;;3.53;2.70;;;;;;;18.20;100.00;101884.88;5090395;28;20042;-68
2023/08/17 00:13:09;;;;;;;7.32;3.20;;;;;;;18.20;100.00;101894.84;5090286;28;20383;-68
2023/08/17 00:15:35;;;;;;;5.53;2.22;;;;;;;18.14;100.00;101889.28;5090160;28;20042;-68
2023/08/17 00:18:00;;;;;;;9.10;3.47;;;;;;;18.12;100.00;101890.56;5089826;28;20040;-69
2023/08/17 00:20:25;;;;;;;6.47;2.55;;;;;;;18.08;100.00;101884.78;5090168;28;20024;-68
2023/08/17 00:22:51;;;;;;;3.45;2.30;;;;;;;18.05;100.00;101882.53;5090761;28;20063;-68
2023/08/17 00:25:16;;;;;;;5.32;3.10;;;;;;;18.06;100.00;101899.53;5090049;28;20031;-68
2023/08/17 00:27:42;;;;;;;7.63;3.70;;;;;;;18.01;100.00;101880.47;5089181;28;20040;-68
2023/08/17 00:30:07;;;;;;;5.60;2.70;;;;;;;17.96;100.00;101876.56;5089823;28;20030;-68
2023/08/17 00:32:33;;;;;;;4.70;2.55;;;;;;;17.91;100.00;101881.78;5089897;28;20035;-68
2023/08/17 00:34:58;;;;;;;4.22;2.63;;;;;;;17.88;100.00;101879.53;5089822;28;20927;-68
2023/08/17 00:37:24;;;;;;;6.55;3.08;;;;;;;17.85;100.00;101879.97;5088327;28;20040;-68
2023/08/17 00:39:49;;;;;;;3.40;2.35;;;;;;;17.82;100.00;101882.31;5090028;28;20059;-68
2023/08/17 00:42:15;;;;;;;5.10;2.83;;;;;;;17.80;100.00;101876.28;5089888;28;20457;-68
2023/08/17 00:44:40;;;;;;;7.47;2.50;;;;;;;17.75;100.00;101883.13;5089531;28;20071;-68
2023/08/17 00:47:06;;;;;;;9.15;2.90;;;;;;;17.71;100.00;101881.06;5089523;28;20048;-68
2023/08/17 00:49:32;;;;;;;7.78;2.90;;;;;;;17.66;100.00;101876.38;5089613;28;20024;-68
2023/08/17 00:51:57;;;;;;;4.35;2.42;;;;;;;17.63;100.00;101868.72;5089444;28;20031;-68
2023/08/17 00:54:27;;;;;;;5.78;3.55;;;;;;;17.59;100.00;101874.75;5089582;28;20043;-68
2023/08/17 00:56:54;;;;;;;6.47;2.80;;;;;;;17.55;100.00;101876.22;5089516;28;20028;-68
2023/08/17 00:59:19;;;;;;;5.18;2.95;;;;;;;17.48;100.00;101874.41;5089362;28;20024;-68
2023/08/17 01:01:47;;;;;;;7.65;3.13;;;;;;;17.47;100.00;101880.00;5089413;28;20043;-68
2023/08/17 01:04:12;;;;;;;4.70;2.60;;;;;;;17.44;100.00;101888.53;5089388;28;20139;-68
2023/08/17 01:06:38;;;;;;;6.13;2.60;;;;;;;17.42;100.00;101885.22;5089350;28;20483;-68
2023/08/17 01:09:03;;;;;;;4.70;2.75;;;;;;;17.42;100.00;101896.88;5089383;28;20035;-68
2023/08/17 01:11:44;;;;;;;3.22;2.22;;;;;;;17.42;100.00;101898.72;5089323;28;20012;-68
2023/08/17 01:14:30;;;;;;;5.23;3.23;;;;;;;17.40;100.00;101888.16;5089294;28;20032;-68
2023/08/17 01:17:06;;;;;;;8.95;3.13;;;;;;;17.40;100.00;101887.34;5089033;28;20475;-68
2023/08/17 01:19:33;;;;;;;9.30;4.15;;;;;;;17.39;100.00;101888.34;5089185;28;20028;-68
2023/08/17 01:22:05;;;;;;;4.68;3.42;;;;;;;17.35;100.00;101879.06;5089050;28;20518;-68
2023/08/17 01:24:30;;;;;;;6.93;3.22;;;;;;;17.31;100.00;101876.78;5088928;28;20032;-68
2023/08/17 01:26:55;;;;;;;7.05;3.53;;;;;;;17.29;100.00;101880.72;5088960;28;20016;-68
2023/08/17 01:29:21;;;;;;;4.97;3.03;;;;;;;17.29;100.00;101888.81;5088946;28;20099;-68
2023/08/17 01:32:03;;;;;;;7.22;3.28;;;;;;;17.25;100.00;101882.22;5088793;28;20064;-68
2023/08/17 01:34:33;;;;;;;7.68;3.58;;;;;;;17.27;100.00;101888.22;5088758;28;20517;-68
2023/08/17 01:37:01;;;;;;;7.50;3.47;;;;;;;17.26;100.00;101879.28;5087649;28;20467;-68
2023/08/17 01:39:34;;;;;;;6.03;3.97;;;;;;;17.24;100.00;101883.28;5091193;28;20399;-68
2023/08/17 01:42:00;;;;;;;7.90;3.22;;;;;;;17.27;100.00;101899.00;5095449;28;20024;-68
2023/08/17 01:44:27;;;;;;;15.38;3.50;;;;;;;17.26;100.00;101882.00;5095576;28;20495;-68
2023/08/17 01:46:53;;;;;;;6.80;3.47;;;;;;;17.25;100.00;101876.81;5095342;28;20048;-68
2023/08/17 01:49:18;;;;;;;12.32;3.85;;;;;;;17.24;100.00;101881.41;5095513;28;20467;-68
2023/08/17 01:51:43;;;;;;;6.40;3.15;;;;;;;17.22;100.00;101879.97;5095312;28;20043;-68
2023/08/17 01:54:09;;;;;;;8.55;3.92;;;;;;;17.19;100.00;101880.41;5095525;28;20478;-68
2023/08/17 01:56:34;;;;;;;14.18;3.63;;;;;;;17.17;100.00;101880.59;5095338;28;20126;-68
2023/08/17 01:58:59;;;;;;;7.25;3.20;;;;;;;17.14;100.00;101875.63;5095461;28;20116;-68
2023/08/17 02:01:25;;;;;;;5.68;3.75;;;;;;;17.14;100.00;101882.91;5093540;28;20036;-68
2023/08/17 02:03:51;;;;;;;5.80;2.80;;;;;;;17.13;100.00;101878.53;5076040;28;20028;-68
2023/08/17 02:06:16;;;;;;;4.25;2.70;;;;;;;17.12;100.00;101876.91;5076100;28;20039;-68
2023/08/17 02:08:41;;;;;;;9.50;2.97;;;;;;;17.09;100.00;101875.47;5076149;28;20487;-68
2023/08/17 02:11:07;;;;;;;5.28;2.92;;;;;;;17.06;100.00;101878.59;5095539;28;20028;-68
2023/08/17 02:13:32;;;;;;;6.20;2.80;;;;;;;17.04;100.00;101876.09;5095441;28;20126;-68
2023/08/17 02:15:57;;;;;;;8.27;2.63;;;;;;;17.01;100.00;101873.84;5095399;28;20112;-68
2023/08/17 02:18:23;;;;;;;4.78;2.90;;;;;;;17.01;100.00;101881.09;5095230;28;20036;-68
2023/08/17 02:20:48;;;;;;;9.38;3.45;;;;;;;16.97;100.00;101880.69;5095244;28;20047;-68
2023/08/17 02:23:14;;;;;;;7.57;3.58;;;;;;;16.95;100.00;101879.25;5093914;28;20047;-68
2023/08/17 02:25:40;;;;;;;9.25;3.72;;;;;;;16.90;100.00;101877.22;5094024;28;20122;-68
2023/08/17 02:28:05;;;;;;;5.22;2.85;;;;;;;16.87;100.00;101880.31;5095284;28;20410;-68
2023/08/17 02:30:31;;;;;;;8.80;3.53;;;;;;;16.86;100.00;101876.78;5095021;28;20032;-68
2023/08/17 02:32:57;;;;;;;6.78;3.15;;;;;;;16.82;100.00;101878.28;5095050;28;20126;-68
2023/08/17 02:35:22;;;;;;;5.35;2.80;;;;;;;16.80;100.00;101871.44;5095136;28;20028;-68
2023/08/17 02:37:48;;;;;;;7.80;3.85;;;;;;;16.78;100.00;101873.50;5094850;28;20039;-68
2023/08/17 02:40:13;;;;;;;5.93;2.40;;;;;;;16.76;100.00;101872.84;5095158;28;20096;-68
2023/08/17 02:42:39;;;;;;;5.53;3.58;;;;;;;16.74;100.00;101866.84;5095145;28;20023;-68
2023/08/17 02:45:06;;;;;;;5.60;3.80;;;;;;;16.72;100.00;101867.09;5095171;28;20028;-68
2023/08/17 02:47:31;;;;;;;5.35;2.83;;;;;;;16.71;100.00;101870.78;5094942;28;20062;-68
2023/08/17 02:49:57;;;;;;;5.22;3.08;;;;;;;16.67;100.00;101858.81;5092906;28;20032;-68
2023/08/17 02:52:22;;;;;;;6.88;3.08;;;;;;;16.66;100.00;101862.53;5091300;28;20031;-68
2023/08/17 02:54:48;;;;;;;4.63;2.80;;;;;;;16.65;100.00;101859.00;5091876;28;20030;-68
2023/08/17 02:57:13;;;;;;;5.03;2.83;;;;;;;16.63;100.00;101854.88;5091756;28;20513;-68
2023/08/17 02:59:38;;;;;;;4.47;2.83;;;;;;;16.59;100.00;101851.78;5091154;28;20032;-68
2023/08/17 03:02:04;;;;;;;8.85;3.03;;;;;;;16.58;100.00;101855.53;5090770;28;20035;-68
2023/08/17 03:04:29;;;;;;;7.43;3.35;;;;;;;16.57;100.00;101864.63;5091509;28;20621;-68
2023/08/17 03:06:54;;;;;;;7.03;2.70;;;;;;;16.55;100.00;101855.09;5091673;28;20512;-68
2023/08/17 03:09:20;;;;;;;3.63;2.88;;;;;;;16.56;100.00;101860.28;5091559;28;20078;-68
2023/08/17 03:11:45;;;;;;;4.57;2.80;;;;;;;16.57;100.00;101858.41;5091515;28;20032;-68
2023/08/17 03:14:10;;;;;;;10.45;4.15;;;;;;;16.55;100.00;101866.69;5091292;28;20039;-68
2023/08/17 03:16:36;;;;;;;5.90;2.90;;;;;;;16.57;100.00;101863.81;5091425;28;20030;-68
2023/08/17 03:19:01;;;;;;;5.47;2.83;;;;;;;16.56;100.00;101871.06;5091391;28;20504;-68
2023/08/17 03:21:26;;;;;;;4.13;2.53;;;;;;;16.55;100.00;101852.41;5091317;28;20032;-68
2023/08/17 03:23:52;;;;;;;8.07;2.55;;;;;;;16.55;100.00;101855.94;5091154;28;20028;-68
2023/08/17 03:26:17;;;;;;;4.28;3.00;;;;;;;16.54;100.00;101846.22;5091272;28;20082;-68
2023/08/17 03:28:43;;;;;;;7.28;2.65;;;;;;;16.54;100.00;101851.59;5091109;28;20059;-68
2023/08/17 03:31:08;;;;;;;7.22;2.92;;;;;;;16.54;100.00;101856.16;5091187;28;20119;-68
2023/08/17 03:33:35;;;;;;;5.03;2.92;;;;;;;16.50;100.00;101858.44;5091077;28;20101;-68
2023/08/17 03:36:00;;;;;;;6.97;2.88;;;;;;;16.51;100.00;101856.59;5090785;28;20466;-68
2023/08/17 03:38:26;;;;;;;4.20;3.10;;;;;;;16.49;100.00;101855.97;5090835;28;20028;-68
2023/08/17 03:40:51;;;;;;;4.40;2.65;;;;;;;16.46;100.00;101845.63;5090976;28;20023;-68
2023/08/17 03:43:17;;;;;;;4.25;2.53;;;;;;;16.46;100.00;101854.53;5090917;28;20047;-68
2023/08/17 03:45:42;;;;;;;3.78;2.45;;;;;;;16.43;100.00;101847.69;5090610;28;20071;-68
2023/08/17 03:48:08;;;;;;;8.60;3.38;;;;;;;16.43;100.00;101846.88;5091003;28;20032;-68
2023/08/17 03:50:34;;;;;;;7.20;3.50;;;;;;;16.43;100.00;101841.47;5090718;28;20874;-68
2023/08/17 03:52:59;;;;;;;5.45;2.30;;;;;;;16.39;100.00;101835.66;5090751;28;20034;-68
2023/08/17 03:55:24;;;;;;;4.45;3.33;;;;;;;16.39;100.00;101837.53;5090494;28;20502;-68
2023/08/17 03:57:50;;;;;;;4.10;2.70;;;;;;;16.40;100.00;101839.19;5090572;28;20081;-68
2023/08/17 04:00:15;;;;;;;2.67;2.10;;;;;;;16.38;100.00;101839.41;5085877;28;20032;-68
2023/08/17 04:02:41;;;;;;;6.85;2.83;;;;;;;16.37;100.00;101839.63;5069975;28;20043;-68
2023/08/17 04:05:06;;;;;;;7.15;3.05;;;;;;;16.36;100.00;101840.66;5090331;28;20035;-68
2023/08/17 04:07:32;;;;;;;8.70;3.53;;;;;;;16.37;100.00;101847.69;5090426;28;20028;-68
2023/08/17 04:09:57;;;;;;;4.82;2.97;;;;;;;16.36;100.00;101848.75;5090305;28;20032;-68
2023/08/17 04:12:23;;;;;;;6.68;3.58;;;;;;;16.35;100.00;101855.19;5090242;28;20067;-68
2023/08/17 04:14:48;;;;;;;3.45;2.40;;;;;;;16.33;100.00;101855.38;5090235;28;20032;-68
2023/08/17 04:17:13;;;;;;;4.20;3.13;;;;;;;16.33;100.00;101854.56;5090106;28;20032;-68
2023/08/17 04:19:39;;;;;;;7.35;2.60;;;;;;;16.33;100.00;101858.06;5089224;28;20036;-68
2023/08/17 04:22:04;;;;;;;5.35;3.15;;;;;;;16.35;100.00;101863.25;5089862;28;20070;-68
2023/08/17 04:24:30;;;;;;;6.13;3.63;;;;;;;16.30;100.00;101866.56;5090176;28;20036;-68
2023/08/17 04:26:55;;;;;;;5.03;2.65;;;;;;;16.34;100.00;101869.66;5089953;28;20031;-68
2023/08/17 04:29:20;;;;;;;7.60;2.60;;;;;;;16.34;100.00;101878.56;5090038;28;20070;-68
2023/08/17 04:31:46;;;;;;;4.88;2.90;;;;;;;16.32;100.00;101877.97;5089795;28;20032;-68
2023/08/17 04:34:11;;;;;;;5.35;3.03;;;;;;;16.32;100.00;101883.34;5089798;28;20943;-68
2023/08/17 04:36:37;;;;;;;4.32;2.60;;;;;;;16.31;100.00;101881.66;5088966;28;20054;-68
2023/08/17 04:39:04;;;;;;;9.23;3.03;;;;;;;16.31;100.00;101872.78;5088773;28;20066;-68
2023/08/17 04:41:29;;;;;;;4.65;2.15;;;;;;;16.28;100.00;101878.59;5089101;28;20551;-68
2023/08/17 04:43:55;;;;;;;3.72;2.80;;;;;;;16.28;100.00;101875.88;5089522;28;20028;-68
2023/08/17 04:46:20;;;;;;;6.70;3.15;;;;;;;16.28;100.00;101876.72;5089384;28;20831;-68
2023/08/17 04:48:46;;;;;;;4.80;2.85;;;;;;;16.29;100.00;101882.91;5088212;28;20051;-68
2023/08/17 04:51:11;;;;;;;8.60;3.00;;;;;;;16.26;100.00;101884.16;5087857;28;20104;-68
2023/08/17 04:53:37;;;;;;;3.67;2.83;;;;;;;16.24;100.00;101880.84;5088280;28;20031;-68
2023/08/17 04:56:03;;;;;;;6.45;2.30;;;;;;;16.22;100.00;101880.25;5089396;28;20120;-68
2023/08/17 04:58:28;;;;;;;5.07;3.70;;;;;;;16.17;100.00;101874.66;5089117;28;20492;-68
2023/08/17 05:00:54;;;;;;;4.57;2.42;;;;;;;16.17;100.00;101872.78;5089290;28;20123;-68
2023/08/17 05:03:19;;;;;;;5.28;3.50;;;;;;;16.18;100.00;101882.50;5089330;28;20043;-68
2023/08/17 05:05:45;;;;;;;7.72;3.17;;;;;;;16.19;100.00;101880.63;5089381;28;20036;-68
2023/08/17 05:08:10;;;;;;;4.25;2.80;;;;;;;16.21;100.00;101875.88;5089432;28;20024;-68
2023/08/17 05:10:35;;;;;;;6.28;2.70;;;;;;;16.21;100.00;101876.72;5089236;28;20064;-68
2023/08/17 05:13:01;;;;;;;7.00;2.72;;;;;;;16.20;100.00;101872.38;5089052;28;20129;-68
2023/08/17 05:15:26;;;;;;;6.47;2.90;;;;;;;16.17;100.00;101871.97;5088918;28;20016;-68
2023/08/17 05:17:51;;;;;;;9.32;3.08;;;;;;;16.19;100.00;101873.41;5089012;28;20043;-68
2023/08/17 05:20:17;;;;;;;10.63;3.45;;;;;;;16.17;100.00;101870.09;5089337;28;20030;-68
2023/08/17 05:22:42;;;;;;;7.13;3.75;;;;;;;16.17;100.00;101872.78;5089186;28;20141;-68
2023/08/17 05:25:08;;;;;;;4.95;2.70;;;;;;;16.20;100.00;101874.25;5088922;28;20104;-68
2023/08/17 05:27:33;;;;;;;12.38;3.45;;;;;;;16.19;100.00;101873.41;5087930;28;20126;-68
2023/08/17 05:29:59;;;;;;;8.50;3.35;;;;;;;16.19;100.00;101873.41;5089022;28;20393;-68
2023/08/17 05:32:24;;;;;;;5.57;3.20;;;;;;;16.20;100.00;101874.25;5088878;28;20147;-68
2023/08/17 05:34:49;;;;;;;5.07;3.20;;;;;;;16.23;100.00;101865.75;5089538;28;20077;-68
2023/08/17 05:37:16;;;;;;;6.78;2.90;;;;;;;16.23;100.00;101863.06;5088955;28;20379;-68
2023/08/17 05:39:41;;;;;;;4.57;2.55;;;;;;;16.21;100.00;101863.25;5088902;28;20039;-68
2023/08/17 05:42:07;;;;;;;8.68;4.05;;;;;;;16.29;100.00;101864.91;5088803;28;20024;-68
2023/08/17 05:44:32;;;;;;;4.47;3.28;;;;;;;16.36;100.00;101864.91;5088985;28;20020;-68
2023/08/17 05:46:58;;;;;;;7.75;3.72;;;;;;;16.42;100.00;101870.25;5088441;28;20058;-68
2023/08/17 05:49:23;;;;;;;5.05;2.65;;;;;;;16.44;100.00;101860.09;5077488;28;20032;-68
2023/08/17 05:51:48;;;;;;;6.40;3.75;;;;;;;16.49;100.00;101880.19;5080360;28;20033;-68
2023/08/17 05:54:14;;;;;;;11.70;4.28;;;;;;;16.51;100.00;101870.88;5069457;28;20047;-68
2023/08/17 05:56:44;;;;;;;5.97;2.95;;;;;;;16.54;100.00;101870.44;5069507;28;20043;-68
2023/08/17 05:59:10;;;;;;;7.18;2.92;;;;;;;16.55;100.00;101861.31;5088560;28;20485;-68
2023/08/17 06:01:35;;;;;;;6.80;3.50;;;;;;;16.64;100.00;101875.41;5088921;28;20055;-68
2023/08/17 06:04:01;;;;;;;6.50;3.15;;;;;;;16.64;100.00;101873.53;5074649;28;20028;-68
2023/08/17 06:06:26;;;;;;;6.72;3.10;;;;;;;16.62;100.00;101881.00;5069181;28;20040;-68
2023/08/17 06:08:52;;;;;;;7.28;3.65;;;;;;;16.57;100.00;101878.09;5069249;28;20024;-68
2023/08/17 06:11:17;;;;;;;8.57;2.97;;;;;;;16.64;100.00;101905.03;5069290;28;20133;-68
2023/08/17 06:13:42;;;;;;;9.98;3.47;;;;;;;16.65;100.00;101895.91;5069273;28;20047;-68
2023/08/17 06:16:08;;;;;;;8.57;4.25;;;;;;;16.63;100.00;101906.88;5069218;28;20480;-68
2023/08/17 06:18:34;;;;;;;9.18;2.85;;;;;;;16.67;100.00;101895.69;5069204;28;20577;-68
2023/08/17 06:20:59;;;;;;;4.50;2.88;;;;;;;16.68;100.00;101900.84;5069253;28;20033;-69
2023/08/17 06:23:25;;;;;;;9.45;4.53;;;;;;;16.72;100.00;101903.97;5069192;28;20047;-68
2023/08/17 06:25:50;;;;;;;6.93;3.20;;;;;;;16.75;100.00;101900.84;5070292;28;20020;-67
2023/08/17 06:28:15;;;;;;;8.88;3.65;;;;;;;16.75;100.00;101892.78;5075241;28;20028;-66
2023/08/17 06:30:41;;;;;;;9.55;3.42;;;;;;;16.79;100.00;101902.09;5075947;28;20379;-66
2023/08/17 06:33:06;;;;;;;8.70;4.05;;;;;;;16.79;100.00;101896.72;5073425;28;20066;-67
2023/08/17 06:35:32;;;;;;;7.63;3.90;;;;;;;16.78;100.00;101897.75;5072724;28;20032;-67
2023/08/17 06:37:57;;;;;;;6.53;3.45;;;;;;;16.81;100.00;101891.94;5072605;28;20055;-67
2023/08/17 06:40:24;;;;;;;13.93;4.40;;;;;;;16.81;100.00;101887.38;5072722;28;20031;-67
2023/08/17 06:42:49;;;;;;;6.32;3.15;;;;;;;16.89;100.00;101894.41;5071404;28;20464;-67
2023/08/17 06:45:18;;;;;;;9.18;3.85;;;;;;;16.95;100.00;101892.72;5072622;28;20047;-67
2023/08/17 06:47:45;;;;;;;7.90;3.42;;;;;;;16.99;100.00;101897.47;5091750;28;20044;-67
2023/08/17 06:50:10;;;;;;;11.63;3.88;;;;;;;17.05;100.00;101901.16;5091911;28;20503;-72
2023/08/17 06:52:36;;;;;;;3.53;3.10;;;;;;;17.13;100.00;101897.41;5091522;28;20049;-67
2023/08/17 06:55:01;;;;;;;8.52;3.40;;;;;;;17.11;100.00;101896.78;5089633;28;20122;-67
2023/08/17 06:57:27;;;;;;;5.38;3.38;;;;;;;17.09;100.00;101894.31;5090974;28;20031;-67
2023/08/17 06:59:52;;;;;;;12.02;4.32;;;;;;;17.14;100.00;101897.22;5091450;28;20054;-67
2023/08/17 07:02:17;;;;;;;8.30;4.13;;;;;;;17.21;100.00;101899.84;5091698;28;20047;-67
2023/08/17 07:04:43;;;;;;;9.45;3.22;;;;;;;17.21;100.00;101903.41;5091398;28;20035;-67
2023/08/17 07:07:08;;;;;;;10.95;3.38;;;;;;;17.14;100.00;101913.38;5071915;28;20539;-67
2023/08/17 07:09:34;;;;;;;6.35;3.72;;;;;;;17.11;100.00;101904.88;5090817;28;20031;-67
2023/08/17 07:11:59;;;;;;;9.18;3.92;;;;;;;17.12;100.00;101903.84;5082299;28;21044;-67
2023/08/17 07:14:25;;;;;;;8.68;4.15;;;;;;;17.16;100.00;101910.44;5071938;28;20473;-67
2023/08/17 07:16:50;;;;;;;6.07;3.60;;;;;;;17.22;100.00;101909.63;5071848;28;20456;-67
2023/08/17 07:19:16;;;;;;;5.90;3.70;;;;;;;17.27;100.00;101907.09;5071880;28;20123;-67
2023/08/17 07:21:41;;;;;;;8.50;3.90;;;;;;;17.29;100.00;101905.00;5071880;28;20098;-67
2023/08/17 07:24:13;;;;;;;9.02;3.42;;;;;;;17.37;100.00;101906.63;5072509;28;20024;-67
2023/08/17 07:26:39;;;;;;;8.02;3.40;;;;;;;17.40;100.00;101909.72;5073883;28;20238;-66
2023/08/17 07:29:05;;;;;;;6.43;4.25;;;;;;;17.44;100.00;101902.03;5074815;28;20032;-66
2023/08/17 07:31:30;;;;;;;5.90;4.10;;;;;;;17.47;100.00;101907.78;5073765;28;20017;-68
2023/08/17 07:33:56;;;;;;;8.75;3.95;;;;;;;17.56;100.00;101910.25;5074267;28;20032;-67
2023/08/17 07:36:21;;;;;;;8.05;4.38;;;;;;;17.57;100.00;101906.50;5074190;28;20039;-67
2023/08/17 07:38:47;;;;;;;6.63;3.40;;;;;;;17.59;100.00;101907.13;5074152;28;20036;-70
2023/08/17 07:41:12;;;;;;;5.57;3.55;;;;;;;17.58;100.00;101905.44;5074824;28;20542;-66
2023/08/17 07:43:37;;;;;;;8.60;3.60;;;;;;;17.55;100.00;101903.19;5074509;28;20047;-66
2023/08/17 07:46:03;;;;;;;6.32;3.20;;;;;;;17.50;100.00;101903.84;5073796;28;20090;-68
2023/08/17 07:48:33;;;;;;;7.10;3.28;;;;;;;17.46;100.00;101913.44;5074262;28;20047;-68
2023/08/17 07:50:58;;;;;;;9.95;3.95;;;;;;;17.45;100.00;101904.50;5074297;28;20040;-68
2023/08/17 07:53:24;;;;;;;5.32;3.50;;;;;;;17.45;100.00;101911.78;5071187;28;20059;-69
2023/08/17 07:55:49;;;;;;;5.63;3.28;;;;;;;17.45;100.00;101918.00;5071285;28;20032;-69
2023/08/17 07:58:14;;;;;;;7.30;4.00;;;;;;;17.45;100.00;101899.13;5071109;28;20032;-69
2023/08/17 08:00:40;;;;;;;7.60;3.60;;;;;;;17.55;100.00;101908.59;5071212;28;20430;-69
2023/08/17 08:03:06;;;;;;;7.90;4.03;;;;;;;17.55;100.00;101906.72;5070705;28;20123;-69
2023/08/17 08:05:31;;;;;;;6.25;3.42;;;;;;;17.60;100.00;101912.28;5070285;28;20050;-69
2023/08/17 08:07:57;;;;;;;11.00;4.95;;;;;;;17.59;100.00;101912.53;5070989;28;20471;-69
2023/08/17 08:10:22;;;;;;;9.32;4.43;;;;;;;17.62;100.00;101920.19;5079274;28;20471;-69
2023/08/17 08:12:48;;;;;;;11.02;4.05;;;;;;;17.65;100.00;101911.66;5074149;28;20033;-69
2023/08/17 08:15:13;;;;;;;7.85;3.90;;;;;;;17.65;100.00;101920.56;5069360;28;20066;-69
2023/08/17 08:17:38;;;;;;;8.98;3.97;;;;;;;17.63;100.00;101925.38;5070510;28;20178;-69
2023/08/17 08:20:04;;;;;;;8.85;3.70;;;;;;;17.53;100.00;101917.75;5070829;28;20025;-70
2023/08/17 08:22:30;;;;;;;8.55;3.83;;;;;;;17.51;100.00;101917.13;5088398;28;20474;-69
2023/08/17 08:24:55;;;;;;;14.35;5.82;;;;;;;17.47;100.00;101915.88;5090114;28;20142;-69
2023/08/17 08:27:21;;;;;;;5.30;2.88;;;;;;;17.44;100.00;101919.03;5089878;28;20388;-69
2023/08/17 08:29:46;;;;;;;10.75;3.40;;;;;;;17.41;100.00;101911.38;5090105;28;20020;-69
2023/08/17 08:32:12;;;;;;;7.90;3.67;;;;;;;17.36;100.00;101921.16;5089929;28;20032;-69
2023/08/17 08:34:38;;;;;;;7.20;3.40;;;;;;;17.33;100.00;101922.41;5089816;28;20475;-69
2023/08/17 08:37:03;;;;;;;11.02;5.25;;;;;;;17.32;100.00;101923.47;5089726;28;20028;-69
2023/08/17 08:39:29;;;;;;;8.52;4.38;;;;;;;17.31;100.00;101924.50;5089730;28;20115;-69
2023/08/17 08:41:55;;;;;;;11.50;4.68;;;;;;;17.28;100.00;101924.94;5089571;28;20055;-69
2023/08/17 08:44:20;;;;;;;7.93;4.97;;;;;;;17.27;100.00;101928.69;5089611;28;20403;-69
2023/08/17 08:46:46;;;;;;;10.48;4.85;;;;;;;17.28;100.00;101930.31;5089447;28;20044;-69
2023/08/17 08:49:12;;;;;;;9.02;4.57;;;;;;;17.29;100.00;101930.13;5087667;28;20038;-69
2023/08/17 08:51:44;;;;;;;13.60;5.03;;;;;;;17.33;100.00;101924.28;5089238;28;20032;-69
2023/08/17 08:54:13;;;;;;;9.55;4.70;;;;;;;17.35;100.00;101928.44;5089649;28;20455;-69
2023/08/17 08:56:41;;;;;;;6.32;4.38;;;;;;;17.33;100.00;101922.41;5068451;28;20046;-70
2023/08/17 08:59:08;;;;;;;13.10;5.65;;;;;;;17.32;100.00;101918.06;5089519;28;20031;-69
2023/08/17 09:01:34;;;;;;;12.25;4.63;;;;;;;17.27;100.00;101916.00;5089303;28;20078;-69
2023/08/17 09:04:01;;;;;;;9.45;5.00;;;;;;;17.24;100.00;101907.53;5089123;28;20035;-69
2023/08/17 09:06:27;;;;;;;14.55;6.13;;;;;;;17.26;100.00;101913.53;5089313;28;20042;-69
2023/08/17 09:08:53;;;;;;;15.63;6.25;;;;;;;17.23;100.00;101916.66;5089265;28;20031;-69
2023/08/17 09:11:18;;;;;;;10.80;5.55;;;;;;;17.26;100.00;101914.34;5089134;28;20034;-69
2023/08/17 09:13:44;;;;;;;10.85;5.43;;;;;;;17.27;100.00;101912.50;5089163;28;20032;-69
2023/08/17 09:16:09;;;;;;;14.00;5.82;;;;;;;17.27;100.00;101907.09;5089211;28;20028;-69
2023/08/17 09:18:35;;;;;;;10.15;4.70;;;;;;;17.29;100.00;101905.84;5088964;28;20036;-69
2023/08/17 09:21:01;;;;;;;11.13;4.88;;;;;;;17.34;100.00;101909.75;5089174;28;20520;-70
2023/08/17 09:23:26;;;;;;;9.23;4.97;;;;;;;17.36;100.00;101905.78;5089122;28;20038;-69
2023/08/17 09:25:52;;;;;;;7.47;4.70;;;;;;;17.39;100.00;101910.75;5087682;28;20124;-69
2023/08/17 09:28:18;;;;;;;10.95;5.40;;;;;;;17.40;100.00;101904.34;5087708;28;20491;-69
2023/08/17 09:31:00;;;;;;;12.95;5.68;;;;;;;17.44;100.00;101900.16;5088985;28;20028;-69
2023/08/17 09:33:27;;;;;;;9.15;5.63;;;;;;;17.45;100.00;101909.09;5069370;28;20408;-69
2023/08/17 09:35:54;;;;;;;10.52;6.38;;;;;;;17.43;100.00;101901.19;5069201;28;20098;-69
2023/08/17 09:38:20;;;;;;;13.43;6.35;;;;;;;17.51;100.00;101894.72;5088145;28;20030;-69
2023/08/17 09:40:46;;;;;;;11.63;5.78;;;;;;;17.57;100.00;101901.13;5088658;28;20533;-69
2023/08/17 09:43:13;;;;;;;11.45;6.93;;;;;;;17.54;100.00;101888.88;5088676;28;20024;-69
2023/08/17 09:45:39;;;;;;;11.30;6.03;;;;;;;17.61;100.00;101886.97;5088617;28;20032;-69
2023/08/17 09:48:05;;;;;;;13.70;6.25;;;;;;;17.62;100.00;101894.03;5088675;28;20055;-69
2023/08/17 09:50:31;;;;;;;10.90;5.25;;;;;;;17.66;100.00;101880.94;5088729;28;20475;-70
2023/08/17 09:52:57;;;;;;;12.57;5.68;;;;;;;17.66;100.00;101878.25;5087368;28;20036;-69
2023/08/17 09:55:23;;;;;;;11.68;6.28;;;;;;;17.75;100.00;101879.63;5087937;28;20060;-69
2023/08/17 09:57:50;;;;;;;14.98;7.70;;;;;;;17.75;100.00;101882.31;5078865;28;20035;-69
2023/08/17 10:00:16;;;;;;;15.32;7.60;;;;;;;17.72;100.00;101883.56;5079655;28;20027;-69
2023/08/17 10:02:44;;;;;;;15.95;8.10;;;;;;;17.73;100.00;101890.59;5091642;28;20036;-69
2023/08/17 10:05:12;;;;;;;16.67;7.93;;;;;;;17.80;100.00;101882.50;5092265;28;20268;-69
2023/08/17 10:07:41;;;;;;;12.82;7.60;;;;;;;17.82;100.00;101885.00;5092634;28;20058;-69
2023/08/17 10:10:07;;;;;;;16.33;7.88;;;;;;;17.79;100.00;101883.56;5092569;28;21017;-69
2023/08/17 10:12:49;;;;;;;15.63;7.63;;;;;;;17.81;100.00;101884.16;5092705;28;20031;-68
2023/08/17 10:15:15;;;;;;;;;;;;;;;17.87;100.00;101875.19;5093183;28;20475;-69
2023/08/17 10:17:55;;;;;;;11.65;6.50;;;;;;;17.84;100.00;101870.25;5092349;28;20011;-69
2023/08/17 10:20:21;;;;;;;15.77;7.65;;;;;;;17.89;100.00;101867.72;5092478;28;20027;-69
2023/08/17 10:23:03;;;;;;;15.63;6.78;;;;;;;17.92;100.00;101867.28;5092244;28;20071;-69
2023/08/17 10:25:29;;;;;;;13.88;7.72;;;;;;;17.98;100.00;101862.03;5078658;28;20093;-67
2023/08/17 10:27:54;;;;;;;14.65;6.32;;;;;;;18.03;100.00;101860.31;5076081;28;20069;-66
2023/08/17 10:30:20;;;;;;;15.70;7.63;;;;;;;18.02;100.00;101860.53;5073806;28;20091;-66
2023/08/17 10:32:46;;;;;;;12.88;7.20;;;;;;;18.01;100.00;101857.00;5075155;28;20082;-67
2023/08/17 10:35:13;;;;;;;15.82;7.88;;;;;;;18.00;100.00;101858.06;5075212;28;20031;-67
2023/08/17 10:37:39;;;;;;;17.77;7.55;;;;;;;17.98;100.00;101864.72;5074996;28;20499;-68
2023/08/17 10:40:06;;;;;;;12.95;7.25;;;;;;;17.96;100.00;101865.75;5075791;28;20111;-67
2023/08/17 10:42:34;;;;;;;14.70;7.55;;;;;;;17.98;100.00;101870.13;5075508;28;20028;-67
2023/08/17 10:45:01;;;;;;;12.63;7.38;;;;;;;17.99;100.00;101858.28;5075044;28;20197;-67
2023/08/17 10:47:28;;;;;;;12.98;7.40;;;;;;;18.06;100.00;101862.56;5075836;28;20054;-67
2023/08/17 10:50:05;;;;;;;25.55;9.15;;;;;;;18.10;100.00;101868.34;5075666;28;20391;-66
2023/08/17 10:52:32;;;;;;;17.83;8.10;;;;;;;18.00;100.00;101868.88;5074057;28;20021;-66
2023/08/17 10:55:06;;;;;;;16.10;7.88;;;;;;;18.03;100.00;101865.72;5072564;28;20016;-68
2023/08/17 10:57:34;;;;;;;16.60;7.85;;;;;;;18.03;100.00;101873.00;5090964;28;20135;-66
2023/08/17 11:00:31;;;;;;;13.00;8.40;;;;;;;18.06;100.00;101869.84;5091832;28;20020;-66
2023/08/17 11:03:09;;;;;;;18.08;8.90;;;;;;;18.06;100.00;101864.44;5091746;28;20051;-67
2023/08/17 11:05:38;;;;;;;13.38;7.60;;;;;;;18.01;100.00;101869.69;5091444;28;20051;-66
2023/08/17 11:08:13;;;;;;;12.32;7.55;;;;;;;18.02;100.00;101860.53;5090800;28;20105;-66
2023/08/17 11:10:39;;;;;;;16.55;8.32;;;;;;;18.06;100.00;101865.28;5090924;28;20035;-69